Time,TemperatureF,DewpointF,PressureIn,WindDirection,WindDirectionDegrees,WindSpeedMPH,WindSpeedGustMPH,Humidity,HourlyPrecipIn,Conditions,Clouds,dailyrainin,SolarRadiationWatts/m^2,SoftwareType,DateUTC
2013-01-13 00:00:00,67.0,62.0,29.67,SSW,199,4.0,8.0,84,0.00,,,0.02,0,Wunderground v.1.15,2013-01-13 05:00:00,
2013-01-13 00:05:00,67.1,61.8,29.67,South,191,6.0,8.0,83,0.00,,,0.00,0,Wunderground v.1.15,2013-01-13 05:05:00,
2013-01-13 00:14:00,67.0,61.7,29.67,SSW,201,4.0,12.0,83,0.00,,,0.00,0,Wunderground v.1.15,2013-01-13 05:14:00,
2013-01-13 00:20:00,67.1,61.8,29.67,SSE,160,4.0,9.0,83,0.00,,,0.00,0,Wunderground v.1.15,2013-01-13 05:20:00,
2013-01-13 00:25:00,67.2,61.5,29.66,WSW,255,5.0,9.0,82,0.00,,,0.00,0,Wunderground v.1.15,2013-01-13 05:25:00,
2013-01-13 00:35:00,67.1,61.4,29.66,South,176,3.0,5.0,82,0.00,,,0.00,0,Wunderground v.1.15,2013-01-13 05:35:00,
2013-01-13 00:45:00,67.1,61.4,29.66,SW,225,4.0,5.0,82,0.00,,,0.00,0,Wunderground v.1.15,2013-01-13 05:45:00,
2013-01-13 00:55:00,67.1,61.4,29.66,WNW,286,4.0,7.0,82,0.00,,,0.00,0,Wunderground v.1.15,2013-01-13 05:55:00,
2013-01-13 01:00:00,67.2,61.2,29.66,SSW,206,5.0,5.0,81,0.00,,,0.00,0,Wunderground v.1.15,2013-01-13 06:00:00,
2013-01-13 01:09:00,67.2,61.2,29.66,SSE,151,4.0,8.0,81,0.00,,,0.00,0,Wunderground v.1.15,2013-01-13 06:09:00,
2013-01-13 01:15:00,67.2,61.2,29.65,South,187,5.0,8.0,81,0.00,,,0.00,0,Wunderground v.1.15,2013-01-13 06:15:00,
2013-01-13 01:24:00,67.2,61.2,29.65,SSW,204,5.0,6.0,81,0.00,,,0.00,0,Wunderground v.1.15,2013-01-13 06:24:00,
2013-01-13 01:30:00,67.2,61.2,29.65,SW,230,5.0,9.0,81,0.00,,,0.00,0,Wunderground v.1.15,2013-01-13 06:30:00,
2013-01-13 01:39:00,67.3,60.9,29.65,SSE,168,5.0,8.0,80,0.00,,,0.00,0,Wunderground v.1.15,2013-01-13 06:39:00,
2013-01-13 01:45:00,67.3,60.9,29.66,South,185,6.0,8.0,80,0.00,,,0.00,0,Wunderground v.1.15,2013-01-13 06:45:00,
2013-01-13 01:55:00,66.8,61.1,29.64,SSE,166,7.0,10.0,82,0.00,,,0.01,0,Wunderground v.1.15,2013-01-13 06:55:00,
2013-01-13 02:04:00,65.8,61.2,29.64,SSE,148,4.0,6.0,85,0.06,,,0.02,0,Wunderground v.1.15,2013-01-13 07:04:00,
2013-01-13 02:10:00,65.7,61.1,29.65,SW,222,4.0,4.0,85,0.06,,,0.03,0,Wunderground v.1.15,2013-01-13 07:10:00,
2013-01-13 02:19:00,65.4,61.1,29.66,ESE,114,4.0,4.0,86,0.05,,,0.04,0,Wunderground v.1.15,2013-01-13 07:19:00,
2013-01-13 02:25:00,65.3,61.3,29.69,West,268,4.0,10.0,87,0.09,,,0.04,0,Wunderground v.1.15,2013-01-13 07:25:00,
2013-01-13 02:34:00,60.6,58.0,29.73,WSW,256,13.0,13.0,91,1.55,,,0.28,0,Wunderground v.1.15,2013-01-13 07:34:00,
2013-01-13 02:40:00,59.9,57.9,29.72,West,267,8.0,8.0,93,0.36,,,0.32,0,Wunderground v.1.15,2013-01-13 07:40:00,
2013-01-13 02:49:00,59.7,57.7,29.72,West,262,6.0,6.0,93,0.19,,,0.36,0,Wunderground v.1.15,2013-01-13 07:49:00,
2013-01-13 02:55:00,59.5,57.5,29.73,SW,236,5.0,6.0,93,0.11,,,0.36,0,Wunderground v.1.15,2013-01-13 07:55:00,
2013-01-13 03:04:00,59.3,57.6,29.73,SW,226,4.0,5.0,94,0.25,,,0.39,0,Wunderground v.1.15,2013-01-13 08:04:00,
2013-01-13 03:10:00,59.2,57.5,29.73,WNW,289,4.0,4.0,94,0.10,,,0.39,0,Wunderground v.1.15,2013-01-13 08:10:00,
2013-01-13 03:19:00,59.1,57.7,29.74,WSW,251,3.0,3.0,95,0.32,,,0.43,0,Wunderground v.1.15,2013-01-13 08:19:00,
2013-01-13 03:25:00,59.0,57.6,29.73,WSW,241,2.0,3.0,95,0.58,,,0.47,0,Wunderground v.1.15,2013-01-13 08:25:00,
2013-01-13 03:35:00,59.0,57.6,29.74,WSW,254,2.0,2.0,95,0.25,,,0.51,0,Wunderground v.1.15,2013-01-13 08:35:00,
2013-01-13 03:45:00,59.0,57.6,29.73,South,190,1.0,2.0,95,0.25,,,0.56,0,Wunderground v.1.15,2013-01-13 08:45:00,
2013-01-13 03:54:00,59.0,57.9,29.73,SSW,196,0.0,5.0,96,0.09,,,0.57,0,Wunderground v.1.15,2013-01-13 08:54:00,
2013-01-13 04:00:00,59.0,57.9,29.73,South,179,1.0,1.0,96,0.26,,,0.59,0,Wunderground v.1.15,2013-01-13 09:00:00,
2013-01-13 04:09:00,59.0,57.9,29.73,SSW,192,1.0,1.0,96,0.12,,,0.61,0,Wunderground v.1.15,2013-01-13 09:09:00,
2013-01-13 04:15:00,59.0,57.9,29.73,SSW,195,1.0,1.0,96,0.08,,,0.62,0,Wunderground v.1.15,2013-01-13 09:15:00,
2013-01-13 04:25:00,59.0,57.9,29.75,South,170,1.0,2.0,96,0.17,,,0.65,0,Wunderground v.1.15,2013-01-13 09:25:00,
2013-01-13 04:35:00,59.0,57.9,29.72,SSE,149,2.0,2.0,96,0.28,,,0.69,0,Wunderground v.1.15,2013-01-13 09:35:00,
2013-01-13 04:45:00,59.0,57.9,29.74,SW,231,1.0,1.0,96,0.05,,,0.70,0,Wunderground v.1.15,2013-01-13 09:45:00,
2013-01-13 04:54:00,59.0,57.9,29.75,South,179,2.0,3.0,96,0.29,,,0.73,0,Wunderground v.1.15,2013-01-13 09:54:00,
2013-01-13 05:00:00,59.0,57.9,29.74,South,175,1.0,1.0,96,0.11,,,0.74,0,Wunderground v.1.15,2013-01-13 10:00:00,
2013-01-13 05:09:00,59.0,57.9,29.75,WSW,242,1.0,1.0,96,0.10,,,0.75,0,Wunderground v.1.15,2013-01-13 10:09:00,
2013-01-13 05:15:00,59.0,57.9,29.74,South,178,1.0,1.0,96,0.08,,,0.76,0,Wunderground v.1.15,2013-01-13 10:15:00,
2013-01-13 05:24:00,58.9,57.8,29.74,SE,136,0.0,0.0,96,0.08,,,0.78,0,Wunderground v.1.15,2013-01-13 10:24:00,
2013-01-13 05:30:00,58.9,57.8,29.73,SE,133,1.0,1.0,96,0.08,,,0.78,0,Wunderground v.1.15,2013-01-13 10:30:00,
2013-01-13 05:39:00,58.8,57.7,29.75,SE,133,0.0,0.0,96,0.04,,,0.78,0,Wunderground v.1.15,2013-01-13 10:39:00,
2013-01-13 05:45:00,58.7,57.6,29.74,ESE,110,1.0,3.0,96,0.00,,,0.79,0,Wunderground v.1.15,2013-01-13 10:45:00,
2013-01-13 05:55:00,58.7,57.6,29.75,ESE,119,2.0,2.0,96,0.00,,,0.79,0,Wunderground v.1.15,2013-01-13 10:55:00,
2013-01-13 06:05:00,58.7,57.6,29.75,SSE,148,2.0,4.0,96,0.00,,,0.79,0,Wunderground v.1.15,2013-01-13 11:05:00,
2013-01-13 06:10:00,58.7,57.9,29.77,SSE,158,3.0,3.0,97,0.00,,,0.80,0,Wunderground v.1.15,2013-01-13 11:10:00,
2013-01-13 06:20:00,58.7,57.9,29.76,ESE,118,2.0,2.0,97,0.10,,,0.81,0,Wunderground v.1.15,2013-01-13 11:20:00,
2013-01-13 06:25:00,58.7,57.6,29.76,ESE,118,0.0,2.0,96,0.07,,,0.81,0,Wunderground v.1.15,2013-01-13 11:25:00,
2013-01-13 06:35:00,58.6,57.5,29.78,ESE,118,0.0,0.0,96,0.04,,,0.82,0,Wunderground v.1.15,2013-01-13 11:35:00,
2013-01-13 06:40:00,58.5,57.4,29.79,ESE,118,0.0,0.0,96,0.10,,,0.83,0,Wunderground v.1.15,2013-01-13 11:40:00,
2013-01-13 06:50:00,58.5,57.7,29.80,ESE,118,0.0,0.0,97,0.04,,,0.83,0,Wunderground v.1.15,2013-01-13 11:50:00,
2013-01-13 06:55:00,58.5,57.7,29.80,SE,134,0.0,0.0,97,0.04,,,0.84,0,Wunderground v.1.15,2013-01-13 11:55:00,
2013-01-13 07:05:00,58.5,57.7,29.80,ESE,109,0.0,3.0,97,0.07,,,0.85,0,Wunderground v.1.15,2013-01-13 12:05:00,
2013-01-13 07:10:00,58.5,57.7,29.80,ESE,102,1.0,1.0,97,0.06,,,0.86,0,Wunderground v.1.15,2013-01-13 12:10:00,
2013-01-13 07:20:00,58.4,57.6,29.80,SE,124,1.0,3.0,97,0.09,,,0.87,0,Wunderground v.1.15,2013-01-13 12:20:00,
2013-01-13 07:30:00,58.4,57.6,29.79,ESE,118,2.0,5.0,97,0.08,,,0.89,0,Wunderground v.1.15,2013-01-13 12:30:00,
2013-01-13 07:39:00,58.4,57.6,29.80,SE,127,3.0,6.0,97,0.05,,,0.89,0,Wunderground v.1.15,2013-01-13 12:39:00,
2013-01-13 07:45:00,58.4,57.6,29.81,SE,128,3.0,6.0,97,0.00,,,0.89,0,Wunderground v.1.15,2013-01-13 12:45:00,
2013-01-13 07:54:00,58.4,57.6,29.80,SE,135,4.0,8.0,97,0.11,,,0.91,0,Wunderground v.1.15,2013-01-13 12:54:00,
2013-01-13 08:00:00,58.5,57.7,29.80,West,262,4.0,4.0,97,0.07,,,0.91,0,Wunderground v.1.15,2013-01-13 13:00:00,
2013-01-13 08:09:00,58.4,57.6,29.79,East,100,4.0,7.0,97,0.04,,,0.92,0,Wunderground v.1.15,2013-01-13 13:09:00,
2013-01-13 08:15:00,58.3,57.5,29.78,SE,131,5.0,7.0,97,0.09,,,0.93,0,Wunderground v.1.15,2013-01-13 13:15:00,
2013-01-13 08:25:00,58.2,57.4,29.75,ESE,112,8.0,11.0,97,0.09,,,0.94,11,Wunderground v.1.15,2013-01-13 13:25:00,
2013-01-13 08:35:00,58.1,57.3,29.78,SSE,152,4.0,10.0,97,0.04,,,0.94,23,Wunderground v.1.15,2013-01-13 13:35:00,
2013-01-13 08:45:00,58.0,57.2,29.78,SE,135,5.0,5.0,97,0.00,,,0.94,18,Wunderground v.1.15,2013-01-13 13:45:00,
2013-01-13 08:54:00,58.0,57.2,29.78,SSE,148,4.0,6.0,97,0.00,,,0.94,26,Wunderground v.1.15,2013-01-13 13:54:00,
2013-01-13 09:00:00,58.0,57.2,29.78,SSE,150,6.0,6.0,97,0.00,,,0.94,30,Wunderground v.1.15,2013-01-13 14:00:00,
2013-01-13 09:09:00,58.0,57.2,29.79,SE,138,5.0,5.0,97,0.00,,,0.94,26,Wunderground v.1.15,2013-01-13 14:09:00,
2013-01-13 09:15:00,58.0,57.2,29.79,SE,134,4.0,5.0,97,0.00,,,0.94,32,Wunderground v.1.15,2013-01-13 14:15:00,
2013-01-13 09:24:00,58.0,57.2,29.80,SSE,151,2.0,3.0,97,0.00,,,0.95,40,Wunderground v.1.15,2013-01-13 14:24:00,
2013-01-13 09:30:00,58.0,57.2,29.79,SE,130,2.0,2.0,97,0.00,,,0.95,39,Wunderground v.1.15,2013-01-13 14:30:00,
2013-01-13 09:39:00,58.0,57.2,29.79,SE,141,2.0,2.0,97,0.00,,,0.95,51,Wunderground v.1.15,2013-01-13 14:39:00,
2013-01-13 09:45:00,58.0,57.2,29.79,SE,125,3.0,3.0,97,0.00,,,0.95,60,Wunderground v.1.15,2013-01-13 14:45:00,
2013-01-13 09:54:00,58.0,57.2,29.79,South,171,2.0,3.0,97,0.00,,,0.95,46,Wunderground v.1.15,2013-01-13 14:54:00,
2013-01-13 10:00:00,58.0,57.2,29.78,SE,130,3.0,3.0,97,0.00,,,0.96,49,Wunderground v.1.15,2013-01-13 15:00:00,
2013-01-13 10:09:00,58.0,57.2,29.80,SSE,154,3.0,4.0,97,0.00,,,0.96,40,Wunderground v.1.15,2013-01-13 15:09:00,
2013-01-13 10:15:00,58.0,57.2,29.80,SE,137,2.0,4.0,97,0.00,,,0.96,37,Wunderground v.1.15,2013-01-13 15:15:00,
2013-01-13 10:25:00,58.0,57.2,29.80,ESE,120,3.0,4.0,97,0.00,,,0.97,30,Wunderground v.1.15,2013-01-13 15:25:00,
2013-01-13 10:30:00,58.0,57.2,29.80,ESE,120,3.0,3.0,97,0.00,,,0.97,28,Wunderground v.1.15,2013-01-13 15:30:00,
2013-01-13 10:40:00,58.0,57.2,29.80,SSE,157,2.0,4.0,97,0.04,,,0.98,28,Wunderground v.1.15,2013-01-13 15:40:00,
2013-01-13 10:45:00,58.0,57.2,29.80,East,87,3.0,6.0,97,0.04,,,0.98,28,Wunderground v.1.15,2013-01-13 15:45:00,
2013-01-13 10:54:00,58.0,57.2,29.79,SE,124,4.0,4.0,97,0.04,,,0.99,28,Wunderground v.1.15,2013-01-13 15:54:00,
2013-01-13 11:00:00,58.0,57.2,29.79,SSE,157,3.0,3.0,97,0.04,,,0.99,26,Wunderground v.1.15,2013-01-13 16:00:00,
2013-01-13 11:09:00,58.0,57.2,29.79,SE,132,2.0,3.0,97,0.00,,,1.00,30,Wunderground v.1.15,2013-01-13 16:09:00,
2013-01-13 11:15:00,58.0,57.2,29.78,SE,131,3.0,7.0,97,0.00,,,1.00,39,Wunderground v.1.15,2013-01-13 16:15:00,
2013-01-13 11:24:00,58.0,57.2,29.76,SE,143,5.0,5.0,97,0.04,,,1.01,54,Wunderground v.1.15,2013-01-13 16:24:00,
2013-01-13 11:30:00,58.1,57.3,29.78,SSE,157,4.0,4.0,97,0.04,,,1.01,51,Wunderground v.1.15,2013-01-13 16:30:00,
2013-01-13 11:39:00,58.2,57.4,29.77,SSE,149,2.0,2.0,97,0.00,,,1.01,67,Wunderground v.1.15,2013-01-13 16:39:00,
2013-01-13 11:45:00,58.2,57.4,29.77,SSW,205,3.0,3.0,97,0.00,,,1.01,65,Wunderground v.1.15,2013-01-13 16:45:00,
2013-01-13 11:55:00,58.2,57.4,29.78,SW,233,1.0,2.0,97,0.00,,,1.01,42,Wunderground v.1.15,2013-01-13 16:55:00,
2013-01-13 12:04:00,58.3,57.5,29.78,South,191,1.0,3.0,97,0.00,,,1.01,40,Wunderground v.1.15,2013-01-13 17:04:00,
2013-01-13 12:10:00,58.3,57.5,29.78,SSW,207,1.0,4.0,97,0.00,,,1.01,39,Wunderground v.1.15,2013-01-13 17:10:00,
2013-01-13 12:19:00,58.3,57.5,29.78,West,260,2.0,2.0,97,0.00,,,1.01,21,Wunderground v.1.15,2013-01-13 17:19:00,
2013-01-13 12:25:00,57.0,55.6,29.78,WNW,292,2.0,6.0,95,0.00,,,1.01,7,Wunderground v.1.15,2013-01-13 17:25:00,
2013-01-13 12:34:00,51.5,49.5,29.78,ESE,118,5.0,5.0,93,0.35,,,1.05,14,Wunderground v.1.15,2013-01-13 17:34:00,
2013-01-13 12:40:00,50.9,49.5,29.77,SSE,147,2.0,2.0,95,0.24,,,1.07,28,Wunderground v.1.15,2013-01-13 17:40:00,
2013-01-13 12:49:00,49.7,48.3,29.77,WSW,253,4.0,8.0,95,0.18,,,1.09,11,Wunderground v.1.15,2013-01-13 17:49:00,
2013-01-13 12:55:00,48.5,47.1,29.78,West,266,6.0,8.0,95,0.15,,,1.10,12,Wunderground v.1.15,2013-01-13 17:55:00,
2013-01-13 13:04:00,47.1,45.7,29.77,West,263,7.0,8.0,95,0.41,,,1.15,14,Wunderground v.1.15,2013-01-13 18:04:00,
2013-01-13 13:10:00,46.6,45.2,29.77,WNW,285,6.0,7.0,95,0.31,,,1.17,12,Wunderground v.1.15,2013-01-13 18:10:00,
2013-01-13 13:20:00,46.1,45.0,29.77,West,260,6.0,7.0,96,0.17,,,1.20,11,Wunderground v.1.15,2013-01-13 18:20:00,
2013-01-13 13:29:00,46.0,44.9,29.77,WSW,256,4.0,4.0,96,0.16,,,1.24,11,Wunderground v.1.15,2013-01-13 18:29:00,
2013-01-13 13:35:00,45.9,44.8,29.77,West,268,3.0,4.0,96,0.19,,,1.25,12,Wunderground v.1.15,2013-01-13 18:35:00,
2013-01-13 13:44:00,45.6,44.5,29.77,WNW,295,3.0,5.0,96,0.11,,,1.28,16,Wunderground v.1.15,2013-01-13 18:44:00,
2013-01-13 13:50:00,45.6,44.5,29.76,WNW,295,2.0,2.0,96,0.20,,,1.30,21,Wunderground v.1.15,2013-01-13 18:50:00,
2013-01-13 13:59:00,45.5,44.4,29.75,NW,312,2.0,2.0,96,0.07,,,1.31,26,Wunderground v.1.15,2013-01-13 18:59:00,
2013-01-13 14:05:00,45.6,44.5,29.74,NNW,330,2.0,2.0,96,0.06,,,1.32,37,Wunderground v.1.15,2013-01-13 19:05:00,
2013-01-13 14:15:00,45.8,45.0,29.75,NNW,340,2.0,2.0,97,0.08,,,1.33,32,Wunderground v.1.15,2013-01-13 19:15:00,
2013-01-13 14:24:00,45.9,45.1,29.73,NNW,334,2.0,2.0,97,0.12,,,1.35,32,Wunderground v.1.15,2013-01-13 19:24:00,
2013-01-13 14:30:00,46.0,45.2,29.75,NNE,12,1.0,2.0,97,0.09,,,1.35,32,Wunderground v.1.15,2013-01-13 19:30:00,
2013-01-13 14:40:00,46.1,45.3,29.77,West,271,1.0,1.0,97,0.18,,,1.37,19,Wunderground v.1.15,2013-01-13 19:40:00,
2013-01-13 14:49:00,46.2,45.4,29.78,West,274,3.0,10.0,97,0.06,,,1.38,16,Wunderground v.1.15,2013-01-13 19:49:00,
2013-01-13 14:55:00,45.6,44.5,29.79,SW,228,7.0,10.0,96,0.18,,,1.40,19,Wunderground v.1.15,2013-01-13 19:55:00,
2013-01-13 15:05:00,44.7,43.6,29.80,WNW,291,7.0,10.0,96,0.08,,,1.41,16,Wunderground v.1.15,2013-01-13 20:05:00,
2013-01-13 15:14:00,43.8,42.5,29.80,NW,315,10.0,10.0,95,0.12,,,1.43,28,Wunderground v.1.15,2013-01-13 20:14:00,
2013-01-13 15:20:00,43.6,42.3,29.81,NW,321,8.0,9.0,95,0.06,,,1.43,28,Wunderground v.1.15,2013-01-13 20:20:00,
2013-01-13 15:29:00,43.2,41.9,29.81,NW,311,8.0,8.0,95,0.10,,,1.45,23,Wunderground v.1.15,2013-01-13 20:29:00,
2013-01-13 15:35:00,42.9,41.6,29.81,NW,318,8.0,8.0,95,0.09,,,1.46,21,Wunderground v.1.15,2013-01-13 20:35:00,
2013-01-13 15:45:00,42.6,41.3,29.79,NNW,330,6.0,8.0,95,0.10,,,1.47,23,Wunderground v.1.15,2013-01-13 20:45:00,
2013-01-13 15:55:00,42.3,41.0,29.81,WNW,299,8.0,8.0,95,0.12,,,1.49,18,Wunderground v.1.15,2013-01-13 20:55:00,
2013-01-13 16:00:00,42.3,41.0,29.82,WNW,295,9.0,9.0,95,0.07,,,1.50,16,Wunderground v.1.15,2013-01-13 21:00:00,
2013-01-13 16:09:00,41.6,40.0,29.82,NNW,340,9.0,9.0,94,0.10,,,1.51,11,Wunderground v.1.15,2013-01-13 21:09:00,
2013-01-13 16:15:00,41.2,39.6,29.82,NW,311,9.0,12.0,94,0.07,,,1.52,12,Wunderground v.1.15,2013-01-13 21:15:00,
2013-01-13 16:24:00,40.6,39.0,29.82,North,4,9.0,10.0,94,0.12,,,1.54,14,Wunderground v.1.15,2013-01-13 21:24:00,
2013-01-13 16:30:00,40.5,38.9,29.84,WNW,285,10.0,10.0,94,0.17,,,1.55,7,Wunderground v.1.15,2013-01-13 21:30:00,
2013-01-13 16:40:00,40.2,38.9,29.84,West,268,9.0,11.0,95,0.13,,,1.58,0,Wunderground v.1.15,2013-01-13 21:40:00,
2013-01-13 16:49:00,39.4,38.1,29.85,WNW,294,9.0,9.0,95,0.30,,,1.63,0,Wunderground v.1.15,2013-01-13 21:49:00,
2013-01-13 16:55:00,39.1,37.8,29.85,NW,315,8.0,11.0,95,0.18,,,1.64,0,Wunderground v.1.15,2013-01-13 21:55:00,
2013-01-13 17:04:00,38.6,37.0,29.87,NW,312,9.0,14.0,94,0.09,,,1.66,0,Wunderground v.1.15,2013-01-13 22:04:00,
2013-01-13 17:10:00,37.7,35.9,29.87,NW,309,10.0,11.0,93,0.12,,,1.67,0,Wunderground v.1.15,2013-01-13 22:10:00,
2013-01-13 17:20:00,36.6,35.0,29.86,WNW,302,10.0,10.0,94,0.28,,,1.71,0,Wunderground v.1.15,2013-01-13 22:20:00,
2013-01-13 17:30:00,36.7,35.4,29.87,NW,326,7.0,7.0,95,0.10,,,1.72,0,Wunderground v.1.15,2013-01-13 22:30:00,
2013-01-13 17:35:00,36.9,35.6,29.85,NW,323,7.0,7.0,95,0.05,,,1.72,0,Wunderground v.1.15,2013-01-13 22:35:00,
2013-01-13 17:44:00,36.9,35.6,29.89,NW,318,8.0,8.0,95,0.00,,,1.73,0,Wunderground v.1.15,2013-01-13 22:44:00,
2013-01-13 17:50:00,36.8,35.5,29.90,WNW,303,10.0,10.0,95,0.00,,,1.73,0,Wunderground v.1.15,2013-01-13 22:50:00,
2013-01-13 17:59:00,36.6,35.3,29.89,NW,305,8.0,8.0,95,0.00,,,1.73,0,Wunderground v.1.15,2013-01-13 22:59:00,
2013-01-13 18:05:00,36.3,35.0,29.90,WNW,303,8.0,12.0,95,0.00,,,1.74,0,Wunderground v.1.15,2013-01-13 23:05:00,
2013-01-13 18:15:00,35.9,34.6,29.91,WNW,298,11.0,11.0,95,0.07,,,1.75,0,Wunderground v.1.15,2013-01-13 23:15:00,
2013-01-13 18:25:00,35.5,34.2,29.92,WNW,289,12.0,15.0,95,0.04,,,1.75,0,Wunderground v.1.15,2013-01-13 23:25:00,
2013-01-13 18:30:00,35.5,34.2,29.93,WNW,299,12.0,15.0,95,0.00,,,1.75,0,Wunderground v.1.15,2013-01-13 23:30:00,
2013-01-13 18:40:00,35.2,33.6,29.94,WNW,297,11.0,15.0,94,0.00,,,1.75,0,Wunderground v.1.15,2013-01-13 23:40:00,
2013-01-13 18:45:00,35.0,33.4,29.95,WNW,303,12.0,15.0,94,0.00,,,1.75,0,Wunderground v.1.15,2013-01-13 23:45:00,
2013-01-13 18:55:00,34.7,32.9,29.96,NW,318,11.0,14.0,93,0.00,,,1.75,0,Wunderground v.1.15,2013-01-13 23:55:00,
2013-01-13 19:05:00,34.7,33.2,29.96,NNW,333,10.0,10.0,94,0.00,,,1.75,0,Wunderground v.1.15,2013-01-14 00:05:00,
2013-01-13 19:10:00,34.6,33.1,29.97,NW,308,11.0,18.0,94,0.00,,,1.75,0,Wunderground v.1.15,2013-01-14 00:10:00,
2013-01-13 19:20:00,34.3,32.5,29.97,WNW,299,12.0,12.0,93,0.00,,,1.75,0,Wunderground v.1.15,2013-01-14 00:20:00,
2013-01-13 19:30:00,34.3,32.5,29.98,NW,310,10.0,10.0,93,0.00,,,1.75,0,Wunderground v.1.15,2013-01-14 00:30:00,
2013-01-13 19:40:00,34.3,32.5,29.99,NW,318,8.0,8.0,93,0.00,,,1.75,0,Wunderground v.1.15,2013-01-14 00:40:00,
2013-01-13 19:50:00,34.4,32.6,29.98,WNW,303,8.0,8.0,93,0.00,,,1.75,0,Wunderground v.1.15,2013-01-14 00:50:00,
2013-01-13 19:55:00,34.4,32.6,29.99,NW,315,8.0,8.0,93,0.00,,,1.75,0,Wunderground v.1.15,2013-01-14 00:55:00,
2013-01-13 20:04:00,34.3,32.5,29.99,WNW,291,10.0,12.0,93,0.00,,,1.75,0,Wunderground v.1.15,2013-01-14 01:04:00,
2013-01-13 20:10:00,34.3,32.5,29.99,WNW,294,9.0,9.0,93,0.00,,,1.75,0,Wunderground v.1.15,2013-01-14 01:10:00,
2013-01-13 20:19:00,34.4,32.6,30.00,NW,310,9.0,11.0,93,0.00,,,1.75,0,Wunderground v.1.15,2013-01-14 01:19:00,
2013-01-13 20:25:00,34.4,32.6,29.99,WNW,283,8.0,11.0,93,0.00,,,1.75,0,Wunderground v.1.15,2013-01-14 01:25:00,
2013-01-13 20:35:00,34.4,32.3,30.00,NW,304,9.0,9.0,92,0.00,,,1.75,0,Wunderground v.1.15,2013-01-14 01:35:00,
2013-01-13 20:44:00,34.3,32.2,30.00,WNW,293,9.0,9.0,92,0.00,,,1.75,0,Wunderground v.1.15,2013-01-14 01:44:00,
2013-01-13 20:50:00,34.3,32.5,30.00,WNW,287,9.0,9.0,93,0.00,,,1.75,0,Wunderground v.1.15,2013-01-14 01:50:00,
2013-01-13 20:59:00,34.2,32.1,30.01,WSW,256,10.0,10.0,92,0.00,,,1.75,0,Wunderground v.1.15,2013-01-14 01:59:00,
2013-01-13 21:05:00,34.1,32.3,30.01,NW,316,9.0,10.0,93,0.00,,,1.75,0,Wunderground v.1.15,2013-01-14 02:05:00,
2013-01-13 21:14:00,33.9,31.8,30.02,WNW,302,9.0,9.0,92,0.00,,,1.75,0,Wunderground v.1.15,2013-01-14 02:14:00,
2013-01-13 21:20:00,33.9,31.8,30.03,WNW,283,9.0,9.0,92,0.00,,,1.75,0,Wunderground v.1.15,2013-01-14 02:20:00,
2013-01-13 21:29:00,33.9,32.1,30.04,NW,310,7.0,7.0,93,0.00,,,1.75,0,Wunderground v.1.15,2013-01-14 02:29:00,
2013-01-13 21:35:00,33.9,32.1,30.04,WNW,296,6.0,13.0,93,0.00,,,1.75,0,Wunderground v.1.15,2013-01-14 02:35:00,
2013-01-13 21:45:00,33.1,30.8,30.05,NW,305,10.0,10.0,91,0.00,,,1.75,0,Wunderground v.1.15,2013-01-14 02:45:00,
2013-01-13 21:50:00,32.9,30.6,30.04,WNW,302,9.0,10.0,91,0.00,,,1.75,0,Wunderground v.1.15,2013-01-14 02:50:00,
2013-01-13 22:00:00,32.8,30.7,30.05,WNW,285,8.0,8.0,92,0.00,,,1.75,0,Wunderground v.1.15,2013-01-14 03:00:00,
2013-01-13 22:05:00,32.6,30.5,30.06,North,354,7.0,8.0,92,0.00,,,1.75,0,Wunderground v.1.15,2013-01-14 03:05:00,
2013-01-13 22:15:00,32.7,30.9,30.06,NW,309,7.0,9.0,93,0.00,,,1.75,0,Wunderground v.1.15,2013-01-14 03:15:00,
2013-01-13 22:25:00,32.4,30.9,30.07,West,275,9.0,12.0,94,0.00,,,1.75,0,Wunderground v.1.15,2013-01-14 03:25:00,
2013-01-13 22:30:00,32.2,30.7,30.08,NW,316,9.0,9.0,94,0.00,,,1.75,0,Wunderground v.1.15,2013-01-14 03:30:00,
2013-01-13 22:40:00,32.0,30.2,30.09,WNW,296,9.0,9.0,93,0.00,,,1.75,0,Wunderground v.1.15,2013-01-14 03:40:00,
2013-01-13 22:45:00,31.9,30.1,30.09,WSW,251,8.0,9.0,93,0.00,,,1.75,0,Wunderground v.1.15,2013-01-14 03:45:00,
2013-01-13 22:55:00,31.5,30.0,30.10,WNW,288,7.0,8.0,94,0.00,,,1.75,0,Wunderground v.1.15,2013-01-14 03:55:00,
2013-01-13 23:04:00,31.4,29.9,30.10,NW,314,7.0,11.0,94,0.00,,,1.75,0,Wunderground v.1.15,2013-01-14 04:04:00,
2013-01-13 23:10:00,31.2,29.7,30.10,WNW,291,7.0,7.0,94,0.00,,,1.75,0,Wunderground v.1.15,2013-01-14 04:10:00,
2013-01-13 23:19:00,31.2,29.1,30.11,NW,312,7.0,8.0,92,0.00,,,1.75,0,Wunderground v.1.15,2013-01-14 04:19:00,
2013-01-13 23:25:00,31.1,28.5,30.11,NNW,333,7.0,8.0,90,0.00,,,1.75,0,Wunderground v.1.15,2013-01-14 04:25:00,
2013-01-13 23:34:00,31.0,28.4,30.11,NW,322,6.0,7.0,90,0.00,,,1.75,0,Wunderground v.1.15,2013-01-14 04:34:00,
2013-01-13 23:40:00,30.7,27.6,30.12,NNW,332,6.0,8.0,88,0.00,,,1.75,0,Wunderground v.1.15,2013-01-14 04:40:00,
2013-01-13 23:50:00,30.1,26.4,30.12,NNW,327,8.0,8.0,86,0.00,,,1.75,0,Wunderground v.1.15,2013-01-14 04:50:00,
2013-01-13 23:59:00,29.8,26.1,30.12,WNW,300,9.0,10.0,86,0.00,,,1.75,0,Wunderground v.1.15,2013-01-14 04:59:00,